Garner, Iowa
Current Conditions -  °F | °C
As of 9:55 AM on Thursday 30 Oct 2014 (Local Time) from KFXY Reporting Station
Overcast Overcast  
Wind Chill: 40°   Ceiling: 10000
Heat Index: 43°   Visibility: 10mi
Dew Point: 39°   Wind: 5mph
Humidity: 87%   Direction: 130°SE
Pressure: 30.04"   Gusts: NA
Location:  43.1°N, 93.6°W
Report Text: KFXY 301455Z AUTO 13004KT 10SM SCT050 SCT075 OVC100 06/04 A3004 RMK AO2
Loading
Personal Weather Stations






























Interactive Weather Map
Tropical Storm Tracking
New forecast layout! Learn more

10-Day Weather Forecast

Advertisements
Track Severe Weather on mobile